TimePDT,TemperatureF,Dew PointF,Humidity,Sea Level PressureIn,VisibilityMPH,Wind Direction,Wind SpeedMPH,Gust SpeedMPH,PrecipitationIn,Events,Conditions,WindDirDegrees,DateUTC
12:56 AM,60.1,54.0,80,30.05,10.0,SSE,9.2,-,N/A,,Overcast,150,2012-11-03 07:56:00
1:56 AM,59.0,54.0,83,30.07,10.0,SSE,12.7,-,N/A,,Overcast,160,2012-11-03 08:56:00
2:56 AM,60.1,54.0,80,30.07,10.0,SE,12.7,-,N/A,,Overcast,140,2012-11-03 09:56:00
3:56 AM,61.0,54.0,78,30.08,10.0,SSE,10.4,-,N/A,,Overcast,160,2012-11-03 10:56:00
4:56 AM,60.1,53.1,78,30.09,10.0,SSE,9.2,-,N/A,,Overcast,150,2012-11-03 11:56:00
5:56 AM,57.9,53.1,84,30.13,10.0,South,10.4,-,N/A,,Overcast,170,2012-11-03 12:56:00
6:56 AM,57.9,53.1,84,30.14,10.0,SSE,5.8,-,N/A,,Overcast,150,2012-11-03 13:56:00
7:56 AM,57.9,54.0,87,30.14,10.0,East,3.5,-,N/A,,Overcast,100,2012-11-03 14:56:00
8:25 AM,59.0,53.6,82,30.14,10.0,East,3.5,-,N/A,,Overcast,90,2012-11-03 15:25:00
8:56 AM,59.0,55.0,87,30.16,10.0,ENE,3.5,-,N/A,,Overcast,70,2012-11-03 15:56:00
9:56 AM,62.1,55.9,80,30.16,10.0,Calm,Calm,-,N/A,,Overcast,0,2012-11-03 16:56:00
10:56 AM,63.0,54.0,72,30.17,10.0,South,5.8,-,N/A,,Clear,180,2012-11-03 17:56:00
11:56 AM,62.1,55.9,80,30.19,10.0,WNW,3.5,-,N/A,,Overcast,300,2012-11-03 18:56:00
12:56 PM,66.0,55.9,70,30.16,10.0,Calm,Calm,-,N/A,,Scattered Clouds,0,2012-11-03 19:56:00
1:56 PM,66.0,54.0,65,30.16,10.0,SW,4.6,-,N/A,,Clear,230,2012-11-03 20:56:00
2:56 PM,63.0,55.0,75,30.17,10.0,WNW,4.6,-,N/A,,Mostly Cloudy,300,2012-11-03 21:56:00
3:56 PM,63.0,54.0,72,30.18,10.0,NNW,3.5,-,N/A,,Mostly Cloudy,340,2012-11-03 22:56:00
4:56 PM,60.1,54.0,80,30.20,8.0,NW,4.6,-,N/A,,Overcast,310,2012-11-03 23:56:00
5:56 PM,60.1,54.0,80,30.19,10.0,Calm,Calm,-,N/A,,Clear,0,2012-11-04 00:56:00
6:56 PM,57.0,53.1,87,30.19,10.0,Calm,Calm,-,N/A,,Mostly Cloudy,0,2012-11-04 01:56:00
7:56 PM,55.0,53.1,93,30.19,10.0,Calm,Calm,-,N/A,,Mostly Cloudy,0,2012-11-04 02:56:00
8:56 PM,55.9,54.0,93,30.21,10.0,Calm,Calm,-,N/A,,Overcast,0,2012-11-04 03:56:00
9:56 PM,55.0,53.1,93,30.21,10.0,Calm,Calm,-,N/A,,Mostly Cloudy,0,2012-11-04 04:56:00
10:56 PM,54.0,52.0,93,30.21,10.0,Calm,Calm,-,N/A,,Mostly Cloudy,0,2012-11-04 05:56:00
11:56 PM,54.0,53.1,97,30.22,9.0,Calm,Calm,-,N/A,,Mostly Cloudy,0,2012-11-04 06:56:00